sensor_id;sensor_type;location;lat;lon;timestamp;P1;durP1;ratioP1;P2;durP2;ratioP2
19374;SDS011;9823;50.936;4.046;2023-03-31T00:01:41;20.70;;;3.07;;
19374;SDS011;9823;50.936;4.046;2023-03-31T00:04:08;17.13;;;2.60;;
19374;SDS011;9823;50.936;4.046;2023-03-31T00:06:39;17.37;;;2.40;;
19374;SDS011;9823;50.936;4.046;2023-03-31T00:09:12;17.40;;;2.93;;
19374;SDS011;9823;50.936;4.046;2023-03-31T00:11:42;19.93;;;2.90;;
19374;SDS011;9823;50.936;4.046;2023-03-31T00:14:11;19.77;;;2.50;;
19374;SDS011;9823;50.936;4.046;2023-03-31T00:16:40;17.20;;;2.60;;
19374;SDS011;9823;50.936;4.046;2023-03-31T00:19:06;14.57;;;3.03;;
19374;SDS011;9823;50.936;4.046;2023-03-31T00:21:34;18.60;;;2.83;;
19374;SDS011;9823;50.936;4.046;2023-03-31T00:24:02;11.00;;;2.40;;
19374;SDS011;9823;50.936;4.046;2023-03-31T00:26:36;13.50;;;2.97;;
19374;SDS011;9823;50.936;4.046;2023-03-31T00:29:10;14.77;;;2.40;;
19374;SDS011;9823;50.936;4.046;2023-03-31T00:31:45;18.37;;;2.57;;
19374;SDS011;9823;50.936;4.046;2023-03-31T00:34:11;13.60;;;2.00;;
19374;SDS011;9823;50.936;4.046;2023-03-31T00:36:39;14.63;;;2.37;;
19374;SDS011;9823;50.936;4.046;2023-03-31T00:39:11;19.33;;;2.33;;
19374;SDS011;9823;50.936;4.046;2023-03-31T00:41:39;20.27;;;2.77;;
19374;SDS011;9823;50.936;4.046;2023-03-31T00:46:49;13.13;;;2.17;;
19374;SDS011;9823;50.936;4.046;2023-03-31T00:49:24;9.97;;;2.03;;
19374;SDS011;9823;50.936;4.046;2023-03-31T00:51:52;14.03;;;2.23;;
19374;SDS011;9823;50.936;4.046;2023-03-31T00:54:22;13.57;;;2.20;;
19374;SDS011;9823;50.936;4.046;2023-03-31T00:56:53;17.10;;;2.43;;
19374;SDS011;9823;50.936;4.046;2023-03-31T00:59:23;15.63;;;2.07;;
19374;SDS011;9823;50.936;4.046;2023-03-31T01:01:51;16.70;;;3.13;;
19374;SDS011;9823;50.936;4.046;2023-03-31T01:04:18;10.03;;;2.23;;
19374;SDS011;9823;50.936;4.046;2023-03-31T01:06:52;12.03;;;1.90;;
19374;SDS011;9823;50.936;4.046;2023-03-31T01:09:24;11.60;;;2.23;;
19374;SDS011;9823;50.936;4.046;2023-03-31T01:11:54;18.63;;;3.00;;
19374;SDS011;9823;50.936;4.046;2023-03-31T01:14:21;18.00;;;2.30;;
19374;SDS011;9823;50.936;4.046;2023-03-31T01:16:47;12.53;;;2.17;;
19374;SDS011;9823;50.936;4.046;2023-03-31T01:19:17;15.20;;;1.93;;
19374;SDS011;9823;50.936;4.046;2023-03-31T01:47:09;9.97;;;1.83;;
19374;SDS011;9823;50.936;4.046;2023-03-31T01:49:45;12.53;;;2.00;;
19374;SDS011;9823;50.936;4.046;2023-03-31T01:52:18;11.33;;;1.83;;
19374;SDS011;9823;50.936;4.046;2023-03-31T02:02:30;12.43;;;2.07;;
19374;SDS011;9823;50.936;4.046;2023-03-31T02:05:02;13.13;;;2.30;;
19374;SDS011;9823;50.936;4.046;2023-03-31T02:07:48;15.97;;;3.03;;
19374;SDS011;9823;50.936;4.046;2023-03-31T02:10:19;13.00;;;3.60;;
19374;SDS011;9823;50.936;4.046;2023-03-31T02:12:46;15.80;;;4.60;;
19374;SDS011;9823;50.936;4.046;2023-03-31T02:15:15;19.93;;;4.60;;
19374;SDS011;9823;50.936;4.046;2023-03-31T02:17:43;14.40;;;4.40;;
19374;SDS011;9823;50.936;4.046;2023-03-31T02:20:12;20.53;;;5.67;;
19374;SDS011;9823;50.936;4.046;2023-03-31T02:22:44;23.73;;;4.80;;
19374;SDS011;9823;50.936;4.046;2023-03-31T02:25:11;18.97;;;4.23;;
19374;SDS011;9823;50.936;4.046;2023-03-31T02:27:39;18.60;;;5.13;;
19374;SDS011;9823;50.936;4.046;2023-03-31T02:30:07;17.47;;;4.17;;
19374;SDS011;9823;50.936;4.046;2023-03-31T02:32:40;26.40;;;5.00;;
19374;SDS011;9823;50.936;4.046;2023-03-31T02:35:09;14.77;;;3.63;;
19374;SDS011;9823;50.936;4.046;2023-03-31T02:37:37;20.87;;;4.50;;
19374;SDS011;9823;50.936;4.046;2023-03-31T02:40:08;20.13;;;4.77;;
19374;SDS011;9823;50.936;4.046;2023-03-31T02:42:38;15.93;;;4.40;;
19374;SDS011;9823;50.936;4.046;2023-03-31T02:45:06;15.27;;;3.87;;
19374;SDS011;9823;50.936;4.046;2023-03-31T02:47:32;11.70;;;3.20;;
19374;SDS011;9823;50.936;4.046;2023-03-31T02:50:01;18.70;;;3.50;;
19374;SDS011;9823;50.936;4.046;2023-03-31T02:52:34;13.60;;;3.13;;
19374;SDS011;9823;50.936;4.046;2023-03-31T02:57:38;17.57;;;3.00;;
19374;SDS011;9823;50.936;4.046;2023-03-31T03:10:19;12.03;;;2.30;;
19374;SDS011;9823;50.936;4.046;2023-03-31T03:15:15;12.47;;;1.90;;
19374;SDS011;9823;50.936;4.046;2023-03-31T03:17:43;8.73;;;1.67;;
19374;SDS011;9823;50.936;4.046;2023-03-31T03:20:11;15.17;;;1.80;;
19374;SDS011;9823;50.936;4.046;2023-03-31T03:22:38;12.13;;;1.90;;
19374;SDS011;9823;50.936;4.046;2023-03-31T03:25:07;9.13;;;1.30;;
19374;SDS011;9823;50.936;4.046;2023-03-31T03:27:34;9.57;;;1.30;;
19374;SDS011;9823;50.936;4.046;2023-03-31T03:30:04;8.00;;;1.13;;
19374;SDS011;9823;50.936;4.046;2023-03-31T03:32:33;8.23;;;1.47;;
19374;SDS011;9823;50.936;4.046;2023-03-31T03:35:00;6.00;;;1.23;;
19374;SDS011;9823;50.936;4.046;2023-03-31T03:37:26;7.07;;;1.10;;
19374;SDS011;9823;50.936;4.046;2023-03-31T03:39:52;5.50;;;0.97;;
19374;SDS011;9823;50.936;4.046;2023-03-31T03:42:18;4.87;;;0.90;;
19374;SDS011;9823;50.936;4.046;2023-03-31T03:44:45;3.53;;;0.80;;
19374;SDS011;9823;50.936;4.046;2023-03-31T03:47:13;2.17;;;0.50;;
19374;SDS011;9823;50.936;4.046;2023-03-31T03:49:39;6.00;;;1.40;;
19374;SDS011;9823;50.936;4.046;2023-03-31T03:52:08;3.13;;;0.80;;
19374;SDS011;9823;50.936;4.046;2023-03-31T03:54:34;2.63;;;0.80;;
19374;SDS011;9823;50.936;4.046;2023-03-31T03:57:00;2.73;;;0.80;;
19374;SDS011;9823;50.936;4.046;2023-03-31T03:59:28;3.40;;;1.17;;
19374;SDS011;9823;50.936;4.046;2023-03-31T04:01:57;5.37;;;1.10;;
19374;SDS011;9823;50.936;4.046;2023-03-31T04:04:23;4.50;;;1.10;;
19374;SDS011;9823;50.936;4.046;2023-03-31T04:06:49;5.80;;;1.00;;
19374;SDS011;9823;50.936;4.046;2023-03-31T04:09:17;3.60;;;0.70;;
19374;SDS011;9823;50.936;4.046;2023-03-31T04:11:43;5.50;;;0.77;;
19374;SDS011;9823;50.936;4.046;2023-03-31T04:14:12;5.40;;;0.90;;
19374;SDS011;9823;50.936;4.046;2023-03-31T04:16:38;4.93;;;0.93;;
19374;SDS011;9823;50.936;4.046;2023-03-31T04:19:07;3.20;;;0.80;;
19374;SDS011;9823;50.936;4.046;2023-03-31T04:21:35;5.50;;;0.90;;
19374;SDS011;9823;50.936;4.046;2023-03-31T04:24:11;4.70;;;0.90;;
19374;SDS011;9823;50.936;4.046;2023-03-31T04:26:45;2.90;;;0.77;;
19374;SDS011;9823;50.936;4.046;2023-03-31T04:29:14;3.47;;;0.80;;
19374;SDS011;9823;50.936;4.046;2023-03-31T04:31:41;5.70;;;0.70;;
19374;SDS011;9823;50.936;4.046;2023-03-31T04:34:12;4.20;;;0.80;;
19374;SDS011;9823;50.936;4.046;2023-03-31T04:36:44;4.03;;;0.70;;
19374;SDS011;9823;50.936;4.046;2023-03-31T04:39:14;5.93;;;0.80;;
19374;SDS011;9823;50.936;4.046;2023-03-31T04:41:41;9.37;;;1.27;;
19374;SDS011;9823;50.936;4.046;2023-03-31T04:44:09;2.83;;;0.97;;
19374;SDS011;9823;50.936;4.046;2023-03-31T04:46:35;8.20;;;1.23;;
19374;SDS011;9823;50.936;4.046;2023-03-31T04:49:01;5.87;;;0.93;;
19374;SDS011;9823;50.936;4.046;2023-03-31T04:51:29;7.17;;;1.40;;
19374;SDS011;9823;50.936;4.046;2023-03-31T04:53:55;8.00;;;1.20;;
19374;SDS011;9823;50.936;4.046;2023-03-31T04:56:21;7.00;;;1.10;;
19374;SDS011;9823;50.936;4.046;2023-03-31T04:58:47;8.47;;;1.30;;
19374;SDS011;9823;50.936;4.046;2023-03-31T05:01:13;7.70;;;1.10;;
19374;SDS011;9823;50.936;4.046;2023-03-31T05:03:45;8.57;;;1.70;;
19374;SDS011;9823;50.936;4.046;2023-03-31T05:06:14;10.77;;;2.07;;
19374;SDS011;9823;50.936;4.046;2023-03-31T05:08:40;11.57;;;2.20;;
19374;SDS011;9823;50.936;4.046;2023-03-31T05:11:06;10.17;;;1.93;;
19374;SDS011;9823;50.936;4.046;2023-03-31T05:13:39;13.73;;;2.23;;
19374;SDS011;9823;50.936;4.046;2023-03-31T05:16:09;17.37;;;2.90;;
19374;SDS011;9823;50.936;4.046;2023-03-31T05:18:36;14.30;;;2.07;;
19374;SDS011;9823;50.936;4.046;2023-03-31T05:21:12;12.63;;;2.60;;
19374;SDS011;9823;50.936;4.046;2023-03-31T05:23:41;11.37;;;2.07;;
19374;SDS011;9823;50.936;4.046;2023-03-31T05:26:08;12.93;;;1.97;;
19374;SDS011;9823;50.936;4.046;2023-03-31T05:28:35;10.20;;;2.33;;
19374;SDS011;9823;50.936;4.046;2023-03-31T05:31:02;12.83;;;2.47;;
19374;SDS011;9823;50.936;4.046;2023-03-31T05:33:30;11.57;;;2.23;;
19374;SDS011;9823;50.936;4.046;2023-03-31T05:35:57;8.53;;;2.13;;
19374;SDS011;9823;50.936;4.046;2023-03-31T05:38:26;14.30;;;1.90;;
19374;SDS011;9823;50.936;4.046;2023-03-31T05:40:54;11.73;;;2.03;;
19374;SDS011;9823;50.936;4.046;2023-03-31T05:43:20;10.07;;;2.40;;
19374;SDS011;9823;50.936;4.046;2023-03-31T05:45:46;16.93;;;2.70;;
19374;SDS011;9823;50.936;4.046;2023-03-31T05:48:12;13.20;;;2.97;;
19374;SDS011;9823;50.936;4.046;2023-03-31T05:50:38;9.27;;;2.30;;
19374;SDS011;9823;50.936;4.046;2023-03-31T05:53:04;12.73;;;2.20;;
19374;SDS011;9823;50.936;4.046;2023-03-31T05:55:30;11.93;;;2.53;;
19374;SDS011;9823;50.936;4.046;2023-03-31T05:57:57;13.27;;;3.03;;
19374;SDS011;9823;50.936;4.046;2023-03-31T06:00:23;15.30;;;2.53;;
19374;SDS011;9823;50.936;4.046;2023-03-31T06:02:50;20.87;;;2.50;;
19374;SDS011;9823;50.936;4.046;2023-03-31T06:05:16;16.50;;;2.30;;
19374;SDS011;9823;50.936;4.046;2023-03-31T06:07:42;18.07;;;2.40;;
19374;SDS011;9823;50.936;4.046;2023-03-31T06:10:08;15.93;;;2.47;;
19374;SDS011;9823;50.936;4.046;2023-03-31T06:12:35;15.63;;;2.60;;
19374;SDS011;9823;50.936;4.046;2023-03-31T06:15:01;14.43;;;2.47;;
19374;SDS011;9823;50.936;4.046;2023-03-31T06:17:28;10.47;;;2.10;;
19374;SDS011;9823;50.936;4.046;2023-03-31T06:19:54;9.10;;;2.33;;
19374;SDS011;9823;50.936;4.046;2023-03-31T06:22:20;13.60;;;2.13;;
19374;SDS011;9823;50.936;4.046;2023-03-31T06:24:46;14.23;;;3.37;;
19374;SDS011;9823;50.936;4.046;2023-03-31T06:27:12;10.67;;;2.17;;
19374;SDS011;9823;50.936;4.046;2023-03-31T06:29:38;18.27;;;2.70;;
19374;SDS011;9823;50.936;4.046;2023-03-31T06:32:04;14.30;;;2.70;;
19374;SDS011;9823;50.936;4.046;2023-03-31T06:34:32;21.07;;;3.20;;
19374;SDS011;9823;50.936;4.046;2023-03-31T06:36:59;14.07;;;2.80;;
19374;SDS011;9823;50.936;4.046;2023-03-31T06:39:25;15.77;;;2.27;;
19374;SDS011;9823;50.936;4.046;2023-03-31T06:41:51;12.83;;;2.40;;
19374;SDS011;9823;50.936;4.046;2023-03-31T06:44:17;14.20;;;2.80;;
19374;SDS011;9823;50.936;4.046;2023-03-31T06:46:49;10.80;;;2.30;;
19374;SDS011;9823;50.936;4.046;2023-03-31T06:49:15;15.67;;;2.60;;
19374;SDS011;9823;50.936;4.046;2023-03-31T06:51:41;14.23;;;2.40;;
19374;SDS011;9823;50.936;4.046;2023-03-31T06:54:07;12.50;;;2.60;;
19374;SDS011;9823;50.936;4.046;2023-03-31T06:56:33;17.33;;;2.80;;
19374;SDS011;9823;50.936;4.046;2023-03-31T06:58:59;18.67;;;2.83;;
19374;SDS011;9823;50.936;4.046;2023-03-31T07:01:25;15.23;;;2.63;;
19374;SDS011;9823;50.936;4.046;2023-03-31T07:03:52;14.53;;;2.60;;
19374;SDS011;9823;50.936;4.046;2023-03-31T07:06:20;17.53;;;2.77;;
19374;SDS011;9823;50.936;4.046;2023-03-31T07:08:48;18.53;;;4.23;;
19374;SDS011;9823;50.936;4.046;2023-03-31T07:11:14;15.37;;;2.57;;
19374;SDS011;9823;50.936;4.046;2023-03-31T07:13:40;17.67;;;3.13;;
19374;SDS011;9823;50.936;4.046;2023-03-31T07:16:06;17.13;;;3.07;;
19374;SDS011;9823;50.936;4.046;2023-03-31T07:18:33;13.47;;;2.50;;
19374;SDS011;9823;50.936;4.046;2023-03-31T07:21:00;17.17;;;2.87;;
19374;SDS011;9823;50.936;4.046;2023-03-31T07:23:27;17.37;;;3.33;;
19374;SDS011;9823;50.936;4.046;2023-03-31T07:25:53;18.50;;;2.80;;
19374;SDS011;9823;50.936;4.046;2023-03-31T07:28:19;17.27;;;2.93;;
19374;SDS011;9823;50.936;4.046;2023-03-31T07:30:45;14.20;;;2.67;;
19374;SDS011;9823;50.936;4.046;2023-03-31T07:33:11;18.50;;;3.00;;
19374;SDS011;9823;50.936;4.046;2023-03-31T07:35:40;18.37;;;3.20;;
19374;SDS011;9823;50.936;4.046;2023-03-31T07:38:08;13.73;;;2.80;;
19374;SDS011;9823;50.936;4.046;2023-03-31T07:40:34;12.73;;;2.60;;
19374;SDS011;9823;50.936;4.046;2023-03-31T07:43:00;24.47;;;3.10;;
19374;SDS011;9823;50.936;4.046;2023-03-31T07:45:26;18.27;;;2.63;;
19374;SDS011;9823;50.936;4.046;2023-03-31T07:47:55;19.00;;;2.53;;
19374;SDS011;9823;50.936;4.046;2023-03-31T07:50:23;15.20;;;2.67;;
19374;SDS011;9823;50.936;4.046;2023-03-31T07:52:52;25.10;;;3.60;;
19374;SDS011;9823;50.936;4.046;2023-03-31T07:55:18;19.23;;;2.87;;
19374;SDS011;9823;50.936;4.046;2023-03-31T07:57:44;19.43;;;4.07;;
19374;SDS011;9823;50.936;4.046;2023-03-31T08:00:11;20.40;;;4.27;;
19374;SDS011;9823;50.936;4.046;2023-03-31T08:02:38;20.97;;;3.00;;
19374;SDS011;9823;50.936;4.046;2023-03-31T08:05:05;13.77;;;3.33;;
19374;SDS011;9823;50.936;4.046;2023-03-31T08:21:46;20.23;;;3.17;;
19374;SDS011;9823;50.936;4.046;2023-03-31T08:24:28;19.37;;;3.17;;
19374;SDS011;9823;50.936;4.046;2023-03-31T08:26:56;18.97;;;3.70;;
19374;SDS011;9823;50.936;4.046;2023-03-31T08:29:25;19.67;;;2.90;;
19374;SDS011;9823;50.936;4.046;2023-03-31T08:31:52;16.97;;;2.63;;
19374;SDS011;9823;50.936;4.046;2023-03-31T08:34:18;19.37;;;3.20;;
19374;SDS011;9823;50.936;4.046;2023-03-31T08:36:47;22.17;;;2.90;;
19374;SDS011;9823;50.936;4.046;2023-03-31T08:39:15;21.37;;;3.40;;
19374;SDS011;9823;50.936;4.046;2023-03-31T08:41:46;21.10;;;3.20;;
19374;SDS011;9823;50.936;4.046;2023-03-31T08:44:20;19.13;;;3.33;;
19374;SDS011;9823;50.936;4.046;2023-03-31T08:46:47;14.73;;;2.53;;
19374;SDS011;9823;50.936;4.046;2023-03-31T08:49:16;17.00;;;3.20;;
19374;SDS011;9823;50.936;4.046;2023-03-31T08:51:46;18.53;;;3.27;;
19374;SDS011;9823;50.936;4.046;2023-03-31T08:54:18;14.13;;;3.07;;
19374;SDS011;9823;50.936;4.046;2023-03-31T08:56:46;15.47;;;2.73;;
19374;SDS011;9823;50.936;4.046;2023-03-31T08:59:22;12.03;;;2.67;;
19374;SDS011;9823;50.936;4.046;2023-03-31T09:07:05;18.50;;;3.40;;
19374;SDS011;9823;50.936;4.046;2023-03-31T09:09:35;17.60;;;3.20;;
19374;SDS011;9823;50.936;4.046;2023-03-31T09:12:06;18.03;;;3.60;;
19374;SDS011;9823;50.936;4.046;2023-03-31T09:14:40;16.27;;;3.30;;
19374;SDS011;9823;50.936;4.046;2023-03-31T09:17:20;12.47;;;2.63;;
19374;SDS011;9823;50.936;4.046;2023-03-31T09:19:54;19.03;;;3.50;;
19374;SDS011;9823;50.936;4.046;2023-03-31T09:22:25;21.87;;;4.17;;
19374;SDS011;9823;50.936;4.046;2023-03-31T09:24:57;20.40;;;3.57;;
19374;SDS011;9823;50.936;4.046;2023-03-31T09:27:25;28.23;;;3.57;;
19374;SDS011;9823;50.936;4.046;2023-03-31T09:30:03;17.87;;;3.40;;
19374;SDS011;9823;50.936;4.046;2023-03-31T09:32:30;24.53;;;3.83;;
19374;SDS011;9823;50.936;4.046;2023-03-31T09:35:02;15.73;;;2.93;;
19374;SDS011;9823;50.936;4.046;2023-03-31T09:37:39;21.23;;;3.53;;
19374;SDS011;9823;50.936;4.046;2023-03-31T09:40:06;24.20;;;3.37;;
19374;SDS011;9823;50.936;4.046;2023-03-31T09:42:34;24.60;;;3.47;;
19374;SDS011;9823;50.936;4.046;2023-03-31T09:45:03;24.73;;;3.97;;
19374;SDS011;9823;50.936;4.046;2023-03-31T09:49:55;13.10;;;2.87;;
19374;SDS011;9823;50.936;4.046;2023-03-31T09:52:30;22.30;;;4.43;;
19374;SDS011;9823;50.936;4.046;2023-03-31T09:55:03;26.17;;;4.33;;
19374;SDS011;9823;50.936;4.046;2023-03-31T10:00:17;20.73;;;3.90;;
19374;SDS011;9823;50.936;4.046;2023-03-31T10:03:02;17.80;;;3.13;;
19374;SDS011;9823;50.936;4.046;2023-03-31T10:10:35;17.57;;;2.80;;
19374;SDS011;9823;50.936;4.046;2023-03-31T10:13:01;21.53;;;3.40;;
19374;SDS011;9823;50.936;4.046;2023-03-31T10:15:32;20.37;;;3.83;;
19374;SDS011;9823;50.936;4.046;2023-03-31T10:18:01;21.93;;;4.77;;
19374;SDS011;9823;50.936;4.046;2023-03-31T10:23:02;22.70;;;4.47;;
19374;SDS011;9823;50.936;4.046;2023-03-31T10:25:29;24.00;;;5.13;;
19374;SDS011;9823;50.936;4.046;2023-03-31T10:27:57;33.73;;;6.73;;
19374;SDS011;9823;50.936;4.046;2023-03-31T10:30:24;19.67;;;4.43;;
19374;SDS011;9823;50.936;4.046;2023-03-31T10:32:50;25.73;;;6.80;;
19374;SDS011;9823;50.936;4.046;2023-03-31T10:35:30;21.70;;;4.43;;
19374;SDS011;9823;50.936;4.046;2023-03-31T10:38:07;23.27;;;4.67;;
19374;SDS011;9823;50.936;4.046;2023-03-31T10:40:35;23.30;;;4.90;;
19374;SDS011;9823;50.936;4.046;2023-03-31T10:45:37;19.40;;;2.70;;
19374;SDS011;9823;50.936;4.046;2023-03-31T10:48:15;17.23;;;3.57;;
19374;SDS011;9823;50.936;4.046;2023-03-31T10:50:48;16.63;;;3.77;;
19374;SDS011;9823;50.936;4.046;2023-03-31T10:53:17;20.43;;;3.63;;
19374;SDS011;9823;50.936;4.046;2023-03-31T10:55:59;13.87;;;2.50;;
19374;SDS011;9823;50.936;4.046;2023-03-31T10:58:42;15.73;;;2.80;;
19374;SDS011;9823;50.936;4.046;2023-03-31T11:06:16;17.50;;;3.27;;
19374;SDS011;9823;50.936;4.046;2023-03-31T11:26:58;16.90;;;2.90;;
19374;SDS011;9823;50.936;4.046;2023-03-31T11:41:57;9.47;;;2.20;;
19374;SDS011;9823;50.936;4.046;2023-03-31T11:44:26;9.30;;;2.13;;
19374;SDS011;9823;50.936;4.046;2023-03-31T11:52:27;14.73;;;2.30;;
19374;SDS011;9823;50.936;4.046;2023-03-31T11:54:55;17.83;;;3.23;;
19374;SDS011;9823;50.936;4.046;2023-03-31T11:57:32;15.80;;;2.40;;
19374;SDS011;9823;50.936;4.046;2023-03-31T12:00:18;14.17;;;3.07;;
19374;SDS011;9823;50.936;4.046;2023-03-31T12:05:14;10.00;;;1.93;;
19374;SDS011;9823;50.936;4.046;2023-03-31T12:07:47;10.73;;;1.93;;
19374;SDS011;9823;50.936;4.046;2023-03-31T12:13:02;8.23;;;1.70;;
19374;SDS011;9823;50.936;4.046;2023-03-31T12:15:34;12.63;;;1.80;;
19374;SDS011;9823;50.936;4.046;2023-03-31T12:18:07;4.57;;;1.30;;
19374;SDS011;9823;50.936;4.046;2023-03-31T12:20:41;3.97;;;1.07;;
19374;SDS011;9823;50.936;4.046;2023-03-31T12:23:10;7.00;;;1.50;;
19374;SDS011;9823;50.936;4.046;2023-03-31T12:25:46;6.63;;;1.37;;
19374;SDS011;9823;50.936;4.046;2023-03-31T12:28:12;10.67;;;1.63;;
19374;SDS011;9823;50.936;4.046;2023-03-31T12:30:41;8.17;;;1.57;;
19374;SDS011;9823;50.936;4.046;2023-03-31T12:33:13;11.07;;;1.83;;
19374;SDS011;9823;50.936;4.046;2023-03-31T12:36:17;10.00;;;1.83;;
19374;SDS011;9823;50.936;4.046;2023-03-31T12:38:40;5.33;;;1.23;;
19374;SDS011;9823;50.936;4.046;2023-03-31T12:49:02;9.83;;;1.90;;
19374;SDS011;9823;50.936;4.046;2023-03-31T12:59:34;8.70;;;1.53;;
19374;SDS011;9823;50.936;4.046;2023-03-31T13:02:10;4.50;;;1.33;;
19374;SDS011;9823;50.936;4.046;2023-03-31T13:04:47;5.60;;;1.20;;
19374;SDS011;9823;50.936;4.046;2023-03-31T13:09:54;8.53;;;1.20;;
19374;SDS011;9823;50.936;4.046;2023-03-31T13:12:21;3.83;;;0.80;;
19374;SDS011;9823;50.936;4.046;2023-03-31T13:14:48;3.27;;;1.00;;
19374;SDS011;9823;50.936;4.046;2023-03-31T13:19:54;4.13;;;0.97;;
19374;SDS011;9823;50.936;4.046;2023-03-31T13:27:49;2.03;;;0.80;;
19374;SDS011;9823;50.936;4.046;2023-03-31T13:35:40;3.67;;;1.00;;
19374;SDS011;9823;50.936;4.046;2023-03-31T13:40:59;3.53;;;0.70;;
19374;SDS011;9823;50.936;4.046;2023-03-31T13:46:20;2.90;;;0.80;;
19374;SDS011;9823;50.936;4.046;2023-03-31T13:51:47;3.33;;;0.80;;
19374;SDS011;9823;50.936;4.046;2023-03-31T13:54:25;2.47;;;0.77;;
19374;SDS011;9823;50.936;4.046;2023-03-31T13:57:04;3.37;;;0.53;;
19374;SDS011;9823;50.936;4.046;2023-03-31T14:02:35;3.77;;;0.70;;
19374;SDS011;9823;50.936;4.046;2023-03-31T14:10:22;1.23;;;0.60;;
19374;SDS011;9823;50.936;4.046;2023-03-31T14:12:51;2.87;;;0.80;;
19374;SDS011;9823;50.936;4.046;2023-03-31T14:15:18;3.10;;;0.80;;
19374;SDS011;9823;50.936;4.046;2023-03-31T14:17:47;2.60;;;0.70;;
19374;SDS011;9823;50.936;4.046;2023-03-31T14:30:41;2.00;;;0.70;;
19374;SDS011;9823;50.936;4.046;2023-03-31T14:33:29;3.70;;;1.07;;
19374;SDS011;9823;50.936;4.046;2023-03-31T14:38:27;2.53;;;1.00;;
19374;SDS011;9823;50.936;4.046;2023-03-31T14:40:54;3.87;;;1.33;;
19374;SDS011;9823;50.936;4.046;2023-03-31T14:43:32;4.27;;;1.30;;
19374;SDS011;9823;50.936;4.046;2023-03-31T14:46:05;3.47;;;1.20;;
19374;SDS011;9823;50.936;4.046;2023-03-31T14:48:39;2.53;;;1.20;;
19374;SDS011;9823;50.936;4.046;2023-03-31T14:51:09;2.87;;;1.10;;
19374;SDS011;9823;50.936;4.046;2023-03-31T14:53:35;4.40;;;1.10;;
19374;SDS011;9823;50.936;4.046;2023-03-31T14:56:03;2.53;;;0.97;;
19374;SDS011;9823;50.936;4.046;2023-03-31T14:58:31;5.60;;;1.07;;
19374;SDS011;9823;50.936;4.046;2023-03-31T15:00:59;2.90;;;0.80;;
19374;SDS011;9823;50.936;4.046;2023-03-31T15:03:26;2.97;;;0.90;;
19374;SDS011;9823;50.936;4.046;2023-03-31T15:05:58;2.37;;;0.80;;
19374;SDS011;9823;50.936;4.046;2023-03-31T15:08:25;3.27;;;1.00;;
19374;SDS011;9823;50.936;4.046;2023-03-31T15:10:57;6.00;;;1.03;;
19374;SDS011;9823;50.936;4.046;2023-03-31T15:15:52;7.57;;;1.20;;
19374;SDS011;9823;50.936;4.046;2023-03-31T15:18:20;7.40;;;1.50;;
19374;SDS011;9823;50.936;4.046;2023-03-31T15:20:46;11.07;;;1.47;;
19374;SDS011;9823;50.936;4.046;2023-03-31T15:25:58;3.90;;;1.07;;
19374;SDS011;9823;50.936;4.046;2023-03-31T15:28:25;6.70;;;1.37;;
19374;SDS011;9823;50.936;4.046;2023-03-31T15:30:52;6.90;;;1.57;;
19374;SDS011;9823;50.936;4.046;2023-03-31T15:33:20;9.07;;;1.70;;
19374;SDS011;9823;50.936;4.046;2023-03-31T15:35:47;6.17;;;1.23;;
19374;SDS011;9823;50.936;4.046;2023-03-31T15:38:16;8.83;;;1.80;;
19374;SDS011;9823;50.936;4.046;2023-03-31T15:40:42;6.87;;;1.70;;
19374;SDS011;9823;50.936;4.046;2023-03-31T15:45:59;8.03;;;1.70;;
19374;SDS011;9823;50.936;4.046;2023-03-31T15:48:33;7.40;;;1.60;;
19374;SDS011;9823;50.936;4.046;2023-03-31T15:51:44;7.80;;;1.40;;
19374;SDS011;9823;50.936;4.046;2023-03-31T15:53:52;6.53;;;1.50;;
19374;SDS011;9823;50.936;4.046;2023-03-31T15:58:57;8.40;;;1.60;;
19374;SDS011;9823;50.936;4.046;2023-03-31T16:01:29;6.80;;;1.30;;
19374;SDS011;9823;50.936;4.046;2023-03-31T16:03:57;5.77;;;1.40;;
19374;SDS011;9823;50.936;4.046;2023-03-31T16:09:38;9.37;;;1.67;;
19374;SDS011;9823;50.936;4.046;2023-03-31T16:11:52;3.90;;;1.20;;
19374;SDS011;9823;50.936;4.046;2023-03-31T16:14:19;6.63;;;2.17;;
19374;SDS011;9823;50.936;4.046;2023-03-31T16:16:51;7.10;;;1.97;;
19374;SDS011;9823;50.936;4.046;2023-03-31T16:19:22;9.47;;;2.57;;
19374;SDS011;9823;50.936;4.046;2023-03-31T16:21:50;15.50;;;4.37;;
19374;SDS011;9823;50.936;4.046;2023-03-31T16:24:18;8.07;;;2.70;;
19374;SDS011;9823;50.936;4.046;2023-03-31T16:26:44;13.17;;;3.80;;
19374;SDS011;9823;50.936;4.046;2023-03-31T16:29:18;8.63;;;3.00;;
19374;SDS011;9823;50.936;4.046;2023-03-31T16:31:44;8.30;;;2.07;;
19374;SDS011;9823;50.936;4.046;2023-03-31T16:34:10;10.40;;;2.07;;
19374;SDS011;9823;50.936;4.046;2023-03-31T16:36:37;12.00;;;2.00;;
19374;SDS011;9823;50.936;4.046;2023-03-31T16:39:03;6.33;;;1.97;;
19374;SDS011;9823;50.936;4.046;2023-03-31T16:41:30;10.37;;;2.17;;
19374;SDS011;9823;50.936;4.046;2023-03-31T16:43:57;8.37;;;1.90;;
19374;SDS011;9823;50.936;4.046;2023-03-31T16:46:23;9.93;;;2.10;;
19374;SDS011;9823;50.936;4.046;2023-03-31T16:48:51;7.37;;;1.80;;
19374;SDS011;9823;50.936;4.046;2023-03-31T16:51:23;13.03;;;2.57;;
19374;SDS011;9823;50.936;4.046;2023-03-31T16:53:50;14.53;;;2.87;;
19374;SDS011;9823;50.936;4.046;2023-03-31T16:56:16;14.93;;;2.63;;
19374;SDS011;9823;50.936;4.046;2023-03-31T16:58:44;20.17;;;3.47;;
19374;SDS011;9823;50.936;4.046;2023-03-31T17:01:11;17.57;;;3.23;;
19374;SDS011;9823;50.936;4.046;2023-03-31T17:03:37;12.73;;;2.97;;
19374;SDS011;9823;50.936;4.046;2023-03-31T17:06:09;13.23;;;2.97;;
19374;SDS011;9823;50.936;4.046;2023-03-31T17:08:36;18.90;;;3.17;;
19374;SDS011;9823;50.936;4.046;2023-03-31T17:11:08;16.50;;;2.80;;
19374;SDS011;9823;50.936;4.046;2023-03-31T17:13:36;15.50;;;2.93;;
19374;SDS011;9823;50.936;4.046;2023-03-31T17:16:02;16.23;;;3.47;;
19374;SDS011;9823;50.936;4.046;2023-03-31T17:18:32;18.07;;;2.77;;
19374;SDS011;9823;50.936;4.046;2023-03-31T17:21:05;15.83;;;3.00;;
19374;SDS011;9823;50.936;4.046;2023-03-31T17:23:31;15.47;;;3.13;;
19374;SDS011;9823;50.936;4.046;2023-03-31T17:25:57;14.10;;;2.67;;
19374;SDS011;9823;50.936;4.046;2023-03-31T17:28:26;17.07;;;3.37;;
19374;SDS011;9823;50.936;4.046;2023-03-31T17:30:55;19.00;;;4.27;;
19374;SDS011;9823;50.936;4.046;2023-03-31T17:33:24;11.33;;;2.30;;
19374;SDS011;9823;50.936;4.046;2023-03-31T17:35:54;9.23;;;2.40;;
19374;SDS011;9823;50.936;4.046;2023-03-31T17:38:20;13.30;;;2.50;;
19374;SDS011;9823;50.936;4.046;2023-03-31T17:40:49;12.40;;;3.03;;
19374;SDS011;9823;50.936;4.046;2023-03-31T17:43:15;15.83;;;2.30;;
19374;SDS011;9823;50.936;4.046;2023-03-31T17:45:41;9.93;;;2.30;;
19374;SDS011;9823;50.936;4.046;2023-03-31T17:48:09;17.20;;;2.80;;
19374;SDS011;9823;50.936;4.046;2023-03-31T17:50:36;15.57;;;3.33;;
19374;SDS011;9823;50.936;4.046;2023-03-31T17:53:02;17.70;;;2.53;;
19374;SDS011;9823;50.936;4.046;2023-03-31T17:55:35;17.50;;;2.60;;
19374;SDS011;9823;50.936;4.046;2023-03-31T17:58:03;10.70;;;2.30;;
19374;SDS011;9823;50.936;4.046;2023-03-31T18:00:30;17.93;;;2.93;;
19374;SDS011;9823;50.936;4.046;2023-03-31T18:02:56;20.50;;;2.93;;
19374;SDS011;9823;50.936;4.046;2023-03-31T18:05:22;19.30;;;3.40;;
19374;SDS011;9823;50.936;4.046;2023-03-31T18:07:48;16.63;;;3.27;;
19374;SDS011;9823;50.936;4.046;2023-03-31T18:10:15;17.57;;;3.57;;
19374;SDS011;9823;50.936;4.046;2023-03-31T18:12:42;14.30;;;2.50;;
19374;SDS011;9823;50.936;4.046;2023-03-31T18:15:11;15.73;;;2.47;;
19374;SDS011;9823;50.936;4.046;2023-03-31T18:17:40;22.17;;;3.50;;
19374;SDS011;9823;50.936;4.046;2023-03-31T18:20:07;23.57;;;3.50;;
19374;SDS011;9823;50.936;4.046;2023-03-31T18:22:36;18.67;;;3.63;;
19374;SDS011;9823;50.936;4.046;2023-03-31T18:25:04;22.30;;;2.87;;
19374;SDS011;9823;50.936;4.046;2023-03-31T18:27:31;17.47;;;2.90;;
19374;SDS011;9823;50.936;4.046;2023-03-31T18:29:57;18.57;;;3.80;;
19374;SDS011;9823;50.936;4.046;2023-03-31T18:32:23;16.10;;;3.00;;